createdAt,value
2018-07-26T00:00:36.799Z,41.91
2018-07-26T00:01:36.761Z,41.71
2018-07-26T00:02:36.717Z,41.81
2018-07-26T00:03:36.676Z,41.91
2018-07-26T00:04:36.635Z,41.71
2018-07-26T00:05:36.595Z,41.61
2018-07-26T00:06:36.553Z,42.00
2018-07-26T00:07:36.520Z,41.52
2018-07-26T00:08:36.472Z,41.81
2018-07-26T00:09:36.431Z,41.32
2018-07-26T00:10:36.392Z,41.42
2018-07-26T00:11:36.349Z,41.22
2018-07-26T00:12:36.315Z,41.42
2018-07-26T00:13:36.268Z,41.52
2018-07-26T00:14:36.226Z,41.22
2018-07-26T00:15:36.186Z,41.42
2018-07-26T00:16:36.145Z,41.22
2018-07-26T00:17:36.104Z,41.42
2018-07-26T00:18:36.063Z,41.32
2018-07-26T00:19:36.023Z,41.42
2018-07-26T00:20:35.982Z,41.42
2018-07-26T00:21:36.001Z,41.42
2018-07-26T00:22:35.900Z,41.42
2018-07-26T00:23:35.859Z,42.10
2018-07-26T00:24:35.818Z,41.42
2018-07-26T00:25:35.784Z,41.52
2018-07-26T00:26:35.736Z,41.52
2018-07-26T00:27:35.717Z,41.52
2018-07-26T00:28:35.655Z,42.00
2018-07-26T00:29:35.614Z,41.61
2018-07-26T00:30:35.623Z,41.81
2018-07-26T00:31:35.531Z,41.71
2018-07-26T00:32:35.491Z,41.81
2018-07-26T00:33:35.450Z,41.91
2018-07-26T00:34:35.409Z,41.91
2018-07-26T00:35:35.376Z,41.91
2018-07-26T00:36:35.330Z,41.91
2018-07-26T00:37:35.286Z,41.91
2018-07-26T00:38:35.244Z,41.91
2018-07-26T00:39:35.203Z,41.81
2018-07-26T00:40:35.212Z,41.91
2018-07-26T00:41:35.122Z,41.91
2018-07-26T00:42:35.080Z,41.91
2018-07-26T00:43:35.040Z,41.91
2018-07-26T00:44:35.002Z,41.91
2018-07-26T00:45:34.960Z,41.81
2018-07-26T00:46:34.931Z,41.81
2018-07-26T00:47:34.875Z,41.81
2018-07-26T00:48:34.835Z,41.61
2018-07-26T00:49:34.794Z,41.81
2018-07-26T00:50:34.752Z,41.71
2018-07-26T00:51:34.712Z,41.61
2018-07-26T00:52:34.671Z,41.61
2018-07-26T00:53:34.630Z,41.71
2018-07-26T00:54:34.589Z,41.71
2018-07-26T00:55:34.548Z,41.71
2018-07-26T00:56:34.507Z,41.61
2018-07-26T00:57:34.466Z,41.71
2018-07-26T00:58:34.424Z,41.61
2018-07-26T00:59:34.383Z,41.61
2018-07-26T01:00:34.343Z,41.61
2018-07-26T01:01:34.301Z,41.71
2018-07-26T01:02:34.260Z,42.20
2018-07-26T01:03:34.219Z,42.30
2018-07-26T01:04:34.178Z,42.10
2018-07-26T01:05:34.137Z,42.30
2018-07-26T01:06:34.096Z,42.20
2018-07-26T01:07:34.055Z,42.10
2018-07-26T01:08:34.014Z,41.81
2018-07-26T01:09:34.029Z,41.91
2018-07-26T01:10:33.934Z,41.81
2018-07-26T01:11:33.891Z,41.91
2018-07-26T01:12:33.853Z,41.81
2018-07-26T01:13:33.809Z,42.00
2018-07-26T01:14:33.767Z,41.71
2018-07-26T01:15:33.726Z,42.40
2018-07-26T01:16:33.688Z,42.40
2018-07-26T01:17:33.645Z,42.20
2018-07-26T01:18:33.602Z,41.91
2018-07-26T01:19:33.562Z,42.49
2018-07-26T01:20:33.521Z,42.00
2018-07-26T01:21:33.480Z,42.30
2018-07-26T01:22:33.438Z,42.30
2018-07-26T01:23:33.447Z,42.30
2018-07-26T01:24:33.356Z,42.30
2018-07-26T01:25:33.322Z,42.10
2018-07-26T01:26:33.274Z,42.20
2018-07-26T01:27:33.233Z,42.30
2018-07-26T01:28:33.192Z,42.40
2018-07-26T01:29:33.151Z,42.40
2018-07-26T01:30:33.109Z,42.69
2018-07-26T01:31:33.070Z,42.69
2018-07-26T01:32:33.028Z,42.69
2018-07-26T01:33:32.987Z,42.59
2018-07-26T01:34:32.945Z,42.57
2018-07-26T01:35:32.904Z,42.59
2018-07-26T01:36:32.863Z,42.66
2018-07-26T01:37:32.822Z,42.47
2018-07-26T01:38:32.780Z,42.47
2018-07-26T01:39:32.739Z,42.40
2018-07-26T01:40:32.698Z,42.28
2018-07-26T01:41:32.659Z,42.69
2018-07-26T01:42:32.616Z,42.57
2018-07-26T01:43:32.574Z,42.49
2018-07-26T01:44:32.534Z,42.49
2018-07-26T01:45:32.491Z,42.76
2018-07-26T01:46:32.451Z,42.59
2018-07-26T01:47:32.410Z,42.76
2018-07-26T01:48:32.369Z,42.96
2018-07-26T01:49:32.328Z,42.96
2018-07-26T01:50:32.286Z,42.96
2018-07-26T01:51:32.245Z,42.86
2018-07-26T01:52:32.204Z,42.86
2018-07-26T01:53:32.163Z,42.96
2018-07-26T01:54:32.125Z,42.86
2018-07-26T01:55:32.083Z,42.86
2018-07-26T01:56:32.040Z,42.76
2018-07-26T01:57:31.999Z,42.86
2018-07-26T01:58:31.957Z,42.88
2018-07-26T01:59:31.916Z,42.86
2018-07-26T02:00:31.877Z,42.96
2018-07-26T02:01:31.834Z,42.98
2018-07-26T02:02:31.795Z,42.86
2018-07-26T02:03:31.752Z,42.76
2018-07-26T02:04:31.710Z,42.66
2018-07-26T02:05:31.670Z,42.66
2018-07-26T02:06:31.627Z,42.57
2018-07-26T02:07:31.587Z,42.66
2018-07-26T02:08:31.596Z,42.66
2018-07-26T02:09:31.505Z,43.05
2018-07-26T02:10:31.463Z,42.76
2018-07-26T02:11:31.421Z,42.66
2018-07-26T02:12:31.381Z,43.05
2018-07-26T02:13:31.340Z,43.05
2018-07-26T02:14:31.307Z,43.05
2018-07-26T02:15:31.256Z,43.05
2018-07-26T02:16:31.216Z,42.96
2018-07-26T02:17:31.175Z,42.86
2018-07-26T02:18:31.132Z,43.05
2018-07-26T02:19:31.094Z,42.86
2018-07-26T02:20:31.050Z,43.05
2018-07-26T02:21:31.015Z,42.96
2018-07-26T02:22:30.968Z,42.96
2018-07-26T02:23:30.926Z,43.15
2018-07-26T02:24:30.885Z,43.05
2018-07-26T02:25:30.844Z,43.05
2018-07-26T02:26:30.802Z,42.96
2018-07-26T02:27:30.761Z,43.05
2018-07-26T02:28:30.720Z,43.15
2018-07-26T02:29:30.679Z,43.05
2018-07-26T02:30:30.637Z,43.05
2018-07-26T02:31:30.596Z,43.15
2018-07-26T02:32:30.555Z,43.05
2018-07-26T02:33:30.514Z,43.25
2018-07-26T02:34:30.472Z,43.25
2018-07-26T02:35:30.430Z,43.15
2018-07-26T02:36:30.389Z,43.15
2018-07-26T02:37:30.353Z,43.15
2018-07-26T02:38:30.307Z,43.04
2018-07-26T02:39:30.266Z,43.15
2018-07-26T02:40:30.226Z,42.96
2018-07-26T02:41:30.183Z,43.05
2018-07-26T02:42:30.141Z,43.05
2018-07-26T02:43:30.099Z,42.94
2018-07-26T02:44:30.059Z,42.96
2018-07-26T02:45:30.018Z,43.15
2018-07-26T02:46:29.975Z,43.15
2018-07-26T02:47:29.986Z,43.15
2018-07-26T02:48:29.893Z,43.25
2018-07-26T02:49:29.852Z,43.15
2018-07-26T02:50:29.810Z,43.05
2018-07-26T02:51:29.769Z,43.25
2018-07-26T02:52:29.728Z,43.05
2018-07-26T02:53:29.686Z,43.25
2018-07-26T02:54:29.651Z,43.35
2018-07-26T02:55:29.605Z,43.04
2018-07-26T02:56:29.565Z,43.35
2018-07-26T02:57:29.535Z,43.25
2018-07-26T02:58:29.480Z,43.15
2018-07-26T02:59:29.441Z,43.35
2018-07-26T03:00:29.396Z,43.35
2018-07-26T03:01:29.356Z,43.35
2018-07-26T03:02:29.313Z,43.35
2018-07-26T03:03:29.275Z,43.25
2018-07-26T03:04:29.231Z,43.23
2018-07-26T03:05:29.191Z,43.25
2018-07-26T03:06:29.148Z,43.33
2018-07-26T03:07:29.111Z,43.35
2018-07-26T03:08:29.065Z,43.43
2018-07-26T03:09:29.024Z,43.54
2018-07-26T03:10:28.984Z,43.54
2018-07-26T03:11:28.941Z,43.43
2018-07-26T03:12:28.899Z,43.43
2018-07-26T03:13:28.857Z,43.52
2018-07-26T03:14:28.822Z,43.52
2018-07-26T03:15:28.775Z,43.52
2018-07-26T03:16:28.734Z,43.43
2018-07-26T03:17:28.692Z,43.43
2018-07-26T03:18:28.649Z,43.52
2018-07-26T03:19:28.610Z,43.52
2018-07-26T03:20:28.568Z,43.23
2018-07-26T03:21:28.526Z,43.43
2018-07-26T03:22:28.484Z,43.43
2018-07-26T03:23:28.442Z,43.52
2018-07-26T03:24:28.405Z,43.52
2018-07-26T03:25:28.360Z,43.33
2018-07-26T03:26:28.318Z,43.33
2018-07-26T03:27:28.284Z,43.43
2018-07-26T03:28:28.235Z,43.43
2018-07-26T03:29:28.194Z,43.23
2018-07-26T03:30:28.152Z,43.52
2018-07-26T03:31:28.112Z,43.23
2018-07-26T03:32:28.069Z,43.52
2018-07-26T03:33:28.028Z,43.33
2018-07-26T03:34:27.988Z,43.62
2018-07-26T03:35:27.944Z,43.44
2018-07-26T03:36:27.905Z,43.43
2018-07-26T03:37:27.861Z,43.52
2018-07-26T03:38:27.819Z,43.52
2018-07-26T03:39:27.778Z,43.52
2018-07-26T03:40:27.787Z,43.43
2018-07-26T03:41:27.695Z,43.52
2018-07-26T03:42:27.653Z,43.33
2018-07-26T03:43:27.645Z,43.23
2018-07-26T03:44:27.570Z,43.13
2018-07-26T03:45:27.533Z,43.43
2018-07-26T03:46:27.487Z,43.35
2018-07-26T03:47:27.446Z,43.33
2018-07-26T03:48:27.404Z,43.33
2018-07-26T03:49:27.364Z,43.54
2018-07-26T03:50:27.324Z,43.23
2018-07-26T03:51:27.312Z,43.43
2018-07-26T03:52:27.238Z,43.43
2018-07-26T03:53:27.207Z,43.33
2018-07-26T03:54:27.154Z,43.43
2018-07-26T03:55:27.113Z,43.35
2018-07-26T03:56:27.072Z,43.33
2018-07-26T03:57:27.032Z,43.43
2018-07-26T03:58:26.987Z,43.33
2018-07-26T03:59:26.947Z,43.44
2018-07-26T04:00:26.906Z,43.15
2018-07-26T04:01:26.864Z,43.44
2018-07-26T04:02:26.822Z,43.25
2018-07-26T04:03:26.857Z,43.43
2018-07-26T04:04:26.739Z,43.05
2018-07-26T04:05:26.720Z,43.43
2018-07-26T04:06:26.656Z,43.43
2018-07-26T04:07:26.615Z,43.23
2018-07-26T04:08:26.573Z,43.44
2018-07-26T04:09:26.532Z,43.35
2018-07-26T04:10:26.491Z,43.43
2018-07-26T04:11:26.448Z,43.33
2018-07-26T04:12:26.409Z,43.35
2018-07-26T04:13:26.365Z,43.23
2018-07-26T04:14:26.323Z,43.44
2018-07-26T04:15:26.282Z,43.33
2018-07-26T04:16:26.241Z,43.43
2018-07-26T04:17:26.199Z,43.25
2018-07-26T04:18:26.157Z,43.35
2018-07-26T04:19:26.121Z,43.04
2018-07-26T04:20:26.124Z,43.33
2018-07-26T04:21:26.034Z,43.25
2018-07-26T04:22:25.990Z,43.05
2018-07-26T04:23:25.949Z,43.25
2018-07-26T04:24:25.911Z,43.15
2018-07-26T04:25:25.866Z,43.15
2018-07-26T04:26:25.824Z,43.05
2018-07-26T04:27:25.783Z,42.96
2018-07-26T04:28:25.742Z,43.15
2018-07-26T04:29:25.700Z,43.15
2018-07-26T04:30:25.660Z,43.05
2018-07-26T04:31:25.616Z,42.96
2018-07-26T04:32:25.576Z,42.86
2018-07-26T04:33:25.533Z,43.05
2018-07-26T04:34:25.491Z,43.05
2018-07-26T04:35:25.450Z,42.94
2018-07-26T04:36:25.451Z,43.05
2018-07-26T04:37:25.367Z,42.96
2018-07-26T04:38:25.325Z,43.05
2018-07-26T04:39:25.285Z,43.04
2018-07-26T04:40:25.249Z,43.05
2018-07-26T04:41:25.201Z,43.05
2018-07-26T04:42:25.158Z,42.86
2018-07-26T04:43:25.117Z,42.96
2018-07-26T04:44:25.080Z,43.05
2018-07-26T04:45:25.035Z,42.96
2018-07-26T04:46:24.995Z,42.94
2018-07-26T04:47:25.001Z,42.96
2018-07-26T04:48:24.909Z,42.86
2018-07-26T04:49:24.886Z,43.15
2018-07-26T04:50:24.825Z,42.96
2018-07-26T04:51:24.787Z,43.15
2018-07-26T04:52:24.794Z,43.05
2018-07-26T04:53:24.701Z,42.66
2018-07-26T04:54:24.662Z,42.57
2018-07-26T04:55:24.618Z,42.76
2018-07-26T04:56:24.576Z,42.66
2018-07-26T04:57:24.539Z,42.86
2018-07-26T04:58:24.493Z,42.79
2018-07-26T04:59:24.451Z,42.86
2018-07-26T05:00:24.410Z,42.69
2018-07-26T05:01:24.369Z,42.40
2018-07-26T05:02:24.326Z,42.20
2018-07-26T05:03:24.285Z,41.54
2018-07-26T05:04:24.248Z,41.66
2018-07-26T05:05:24.202Z,41.46
2018-07-26T05:06:24.160Z,40.50
2018-07-26T05:07:24.119Z,40.31
2018-07-26T05:08:24.078Z,40.21
2018-07-26T05:09:24.036Z,39.94
2018-07-26T05:10:23.994Z,39.84
2018-07-26T05:11:23.952Z,39.36
2018-07-26T05:12:23.912Z,39.18
2018-07-26T05:13:23.870Z,38.89
2018-07-26T05:14:23.828Z,38.51
2018-07-26T05:15:23.787Z,38.42
2018-07-26T05:16:23.746Z,38.22
2018-07-26T05:17:23.705Z,37.83
2018-07-26T05:18:23.717Z,37.55
2018-07-26T05:19:23.622Z,38.04
2018-07-26T05:20:23.581Z,37.65
2018-07-26T05:21:23.540Z,37.47
2018-07-26T05:22:23.549Z,37.08
2018-07-26T05:23:23.457Z,37.18
2018-07-26T05:24:23.417Z,36.88
2018-07-26T05:25:23.376Z,36.98
2018-07-26T05:26:23.334Z,37.08
2018-07-26T05:27:23.299Z,37.00
2018-07-26T05:28:23.252Z,36.71
2018-07-26T05:29:23.211Z,36.61
2018-07-26T05:30:23.170Z,36.71
2018-07-26T05:31:23.129Z,36.61
2018-07-26T05:32:23.088Z,36.41
2018-07-26T05:33:23.149Z,36.32
2018-07-26T05:34:23.006Z,36.02
2018-07-26T05:35:22.966Z,36.32
2018-07-26T05:36:22.926Z,35.94
2018-07-26T05:37:22.934Z,35.55
2018-07-26T05:38:22.843Z,35.65
2018-07-26T05:39:22.802Z,35.76
2018-07-26T05:40:22.762Z,35.55
2018-07-26T05:41:22.725Z,35.37
2018-07-26T05:42:22.686Z,35.37
2018-07-26T05:43:22.641Z,35.37
2018-07-26T05:44:22.599Z,35.37
2018-07-26T05:45:22.559Z,35.08
2018-07-26T05:46:22.518Z,35.19
2018-07-26T05:47:22.477Z,35.17
2018-07-26T05:48:22.437Z,35.10
2018-07-26T05:49:22.403Z,34.80
2018-07-26T05:50:22.356Z,34.80
2018-07-26T05:51:22.317Z,34.70
2018-07-26T05:52:22.276Z,34.61
2018-07-26T05:53:22.280Z,34.51
2018-07-26T05:54:22.196Z,34.52
2018-07-26T05:55:22.154Z,34.33
2018-07-26T05:56:22.116Z,34.23
2018-07-26T05:57:22.073Z,34.23
2018-07-26T05:58:22.033Z,34.03
2018-07-26T05:59:21.992Z,34.03
2018-07-26T06:00:21.954Z,33.94
2018-07-26T06:01:21.912Z,34.13
2018-07-26T06:02:21.870Z,34.15
2018-07-26T06:03:21.831Z,33.85
2018-07-26T06:04:21.791Z,33.75
2018-07-26T06:05:21.750Z,33.75
2018-07-26T06:06:21.711Z,33.95
2018-07-26T06:07:21.670Z,33.56
2018-07-26T06:08:21.629Z,33.26
2018-07-26T06:09:21.593Z,33.48
2018-07-26T06:10:21.549Z,33.28
2018-07-26T06:11:21.508Z,33.56
2018-07-26T06:12:21.476Z,33.18
2018-07-26T06:13:21.429Z,33.18
2018-07-26T06:14:21.391Z,33.28
2018-07-26T06:15:21.350Z,33.18
2018-07-26T06:16:21.308Z,33.08
2018-07-26T06:17:21.269Z,32.89
2018-07-26T06:18:21.230Z,33.00
2018-07-26T06:19:21.188Z,32.98
2018-07-26T06:20:21.154Z,32.89
2018-07-26T06:21:21.121Z,32.89
2018-07-26T06:22:21.070Z,32.81
2018-07-26T06:23:21.029Z,32.61
2018-07-26T06:24:20.989Z,32.61
2018-07-26T06:25:20.980Z,32.61
2018-07-26T06:26:20.907Z,32.61
2018-07-26T06:27:20.869Z,32.61
2018-07-26T06:28:20.912Z,32.59
2018-07-26T06:29:20.788Z,32.71
2018-07-26T06:30:20.751Z,32.81
2018-07-26T06:31:20.710Z,32.71
2018-07-26T06:32:20.671Z,32.51
2018-07-26T06:33:20.646Z,32.51
2018-07-26T06:34:20.590Z,32.61
2018-07-26T06:35:20.551Z,32.61
2018-07-26T06:36:20.509Z,32.41
2018-07-26T06:37:20.470Z,32.31
2018-07-26T06:38:20.429Z,32.41
2018-07-26T06:39:20.389Z,32.71
2018-07-26T06:40:20.350Z,32.21
2018-07-26T06:41:20.310Z,32.31
2018-07-26T06:42:20.270Z,32.41
2018-07-26T06:43:20.230Z,32.33
2018-07-26T06:44:20.190Z,32.04
2018-07-26T06:45:20.201Z,31.94
2018-07-26T06:46:20.111Z,31.94
2018-07-26T06:47:20.071Z,31.84
2018-07-26T06:48:20.033Z,32.04
2018-07-26T06:49:19.992Z,31.74
2018-07-26T06:50:19.951Z,31.64
2018-07-26T06:51:19.912Z,31.54
2018-07-26T06:52:19.872Z,31.45
2018-07-26T06:53:19.833Z,31.76
2018-07-26T06:54:19.794Z,31.46
2018-07-26T06:55:19.803Z,31.36
2018-07-26T06:56:19.713Z,31.56
2018-07-26T06:57:19.674Z,31.28
2018-07-26T06:58:19.634Z,31.09
2018-07-26T06:59:19.594Z,30.79
2018-07-26T07:00:19.554Z,30.60
2018-07-26T07:01:19.516Z,30.21
2018-07-26T07:02:19.475Z,30.21
2018-07-26T07:03:19.436Z,30.22
2018-07-26T07:04:19.399Z,29.83
2018-07-26T07:05:19.357Z,29.65
2018-07-26T07:06:19.317Z,29.35
2018-07-26T07:07:19.277Z,29.27
2018-07-26T07:08:19.238Z,28.88
2018-07-26T07:09:19.199Z,29.28
2018-07-26T07:10:19.159Z,28.79
2018-07-26T07:11:19.119Z,28.50
2018-07-26T07:12:19.080Z,28.11
2018-07-26T07:13:19.041Z,27.92
2018-07-26T07:14:19.003Z,27.64
2018-07-26T07:15:18.963Z,27.34
2018-07-26T07:16:18.922Z,27.45
2018-07-26T07:17:18.887Z,26.76
2018-07-26T07:18:18.843Z,27.36
2018-07-26T07:19:18.803Z,26.48
2018-07-26T07:20:18.764Z,26.29
2018-07-26T07:21:18.725Z,26.59
2018-07-26T07:22:18.685Z,26.31
2018-07-26T07:23:18.649Z,26.01
2018-07-26T07:24:18.606Z,25.62
2018-07-26T07:25:18.568Z,25.23
2018-07-26T07:26:18.527Z,25.34
2018-07-26T07:27:18.488Z,25.34
2018-07-26T07:28:18.449Z,24.85
2018-07-26T07:29:18.410Z,24.36
2018-07-26T07:30:18.370Z,24.18
2018-07-26T07:31:18.332Z,24.37
2018-07-26T07:32:18.291Z,23.99
2018-07-26T07:33:18.306Z,23.99
2018-07-26T07:34:18.213Z,23.79
2018-07-26T07:35:18.221Z,23.41
2018-07-26T07:36:18.135Z,23.11
2018-07-26T07:37:18.096Z,23.02
2018-07-26T07:38:18.056Z,23.02
2018-07-26T07:39:18.024Z,22.82
2018-07-26T07:40:17.979Z,22.92
2018-07-26T07:41:17.947Z,23.03
2018-07-26T07:42:17.900Z,22.44
2018-07-26T07:43:17.861Z,22.63
2018-07-26T07:44:17.822Z,22.44
2018-07-26T07:45:17.783Z,22.34
2018-07-26T07:46:17.743Z,21.96
2018-07-26T07:47:17.765Z,21.56
2018-07-26T07:48:17.666Z,21.66
2018-07-26T07:49:17.629Z,21.86
2018-07-26T07:50:17.587Z,21.36
2018-07-26T07:51:17.549Z,21.57
2018-07-26T07:52:17.510Z,21.17
2018-07-26T07:53:17.476Z,21.17
2018-07-26T07:54:17.431Z,20.98
2018-07-26T07:55:17.393Z,21.28
2018-07-26T07:56:17.354Z,20.79
2018-07-26T07:57:17.316Z,21.08
2018-07-26T07:58:17.276Z,20.79
2018-07-26T07:59:17.238Z,20.70
2018-07-26T08:00:17.199Z,20.60
2018-07-26T08:01:17.161Z,20.71
2018-07-26T08:02:17.121Z,20.71
2018-07-26T08:03:17.083Z,20.81
2018-07-26T08:04:17.044Z,20.51
2018-07-26T08:05:17.065Z,20.22
2018-07-26T08:06:16.973Z,20.12
2018-07-26T08:07:16.929Z,20.42
2018-07-26T08:08:16.891Z,19.92
2018-07-26T08:09:16.852Z,20.02
2018-07-26T08:10:16.813Z,20.13
2018-07-26T08:11:16.843Z,20.12
2018-07-26T08:12:16.736Z,19.53
2018-07-26T08:13:16.700Z,19.73
2018-07-26T08:14:16.659Z,19.73
2018-07-26T08:15:16.621Z,19.44
2018-07-26T08:16:16.589Z,19.44
2018-07-26T08:17:16.545Z,19.14
2018-07-26T08:18:16.506Z,19.24
2018-07-26T08:19:16.468Z,19.34
2018-07-26T08:20:16.433Z,19.34
2018-07-26T08:21:16.442Z,19.55
2018-07-26T08:22:16.353Z,19.24
2018-07-26T08:23:16.316Z,19.25
2018-07-26T08:24:16.278Z,19.15
2018-07-26T08:25:16.240Z,19.05
2018-07-26T08:26:16.201Z,19.15
2018-07-26T08:27:16.164Z,18.95
2018-07-26T08:28:16.127Z,19.06
2018-07-26T08:29:16.093Z,18.65
2018-07-26T08:30:16.051Z,18.65
2018-07-26T08:31:16.014Z,18.55
2018-07-26T08:32:15.979Z,18.55
2018-07-26T08:33:15.938Z,18.65
2018-07-26T08:34:15.900Z,18.55
2018-07-26T08:35:15.863Z,18.75
2018-07-26T08:36:15.825Z,18.75
2018-07-26T08:37:15.788Z,18.85
2018-07-26T08:38:15.753Z,18.94
2018-07-26T08:39:15.712Z,19.15
2018-07-26T08:40:15.676Z,19.04
2018-07-26T08:41:15.639Z,19.24
2018-07-26T08:42:15.600Z,19.34
2018-07-26T08:43:15.563Z,19.44
2018-07-26T08:44:15.527Z,19.34
2018-07-26T08:45:15.489Z,19.04
2018-07-26T08:46:15.453Z,19.64
2018-07-26T08:47:15.414Z,19.63
2018-07-26T08:48:15.416Z,19.24
2018-07-26T08:49:15.341Z,19.23
2018-07-26T08:50:15.305Z,19.64
2018-07-26T08:51:15.266Z,19.64
2018-07-26T08:52:15.301Z,19.54
2018-07-26T08:53:15.193Z,19.34
2018-07-26T08:54:15.211Z,19.54
2018-07-26T08:55:15.121Z,19.54
2018-07-26T08:56:15.082Z,19.54
2018-07-26T08:57:15.046Z,19.34
2018-07-26T08:58:15.007Z,19.53
2018-07-26T08:59:14.971Z,19.23
2018-07-26T09:00:14.935Z,19.63
2018-07-26T09:01:14.988Z,19.23
2018-07-26T09:02:14.861Z,19.33
2018-07-26T09:03:14.824Z,19.33
2018-07-26T09:04:14.788Z,19.42
2018-07-26T09:05:14.751Z,19.72
2018-07-26T09:06:14.715Z,19.72
2018-07-26T09:07:14.678Z,19.62
2018-07-26T09:08:14.641Z,19.82
2018-07-26T09:09:14.605Z,19.61
2018-07-26T09:10:14.569Z,19.91
2018-07-26T09:11:14.532Z,20.31
2018-07-26T09:12:14.495Z,20.31
2018-07-26T09:13:14.459Z,19.90
2018-07-26T09:14:14.422Z,20.20
2018-07-26T09:15:14.386Z,20.00
2018-07-26T09:16:14.350Z,19.99
2018-07-26T09:17:14.316Z,20.49
2018-07-26T09:18:14.276Z,20.48
2018-07-26T09:19:14.240Z,20.68
2018-07-26T09:20:14.210Z,20.48
2018-07-26T09:21:14.167Z,20.87
2018-07-26T09:22:14.130Z,21.06
2018-07-26T09:23:14.094Z,21.16
2018-07-26T09:24:14.060Z,21.25
2018-07-26T09:25:14.023Z,21.15
2018-07-26T09:26:14.046Z,21.44
2018-07-26T09:27:13.949Z,21.34
2018-07-26T09:28:13.915Z,21.83
2018-07-26T09:29:13.877Z,21.83
2018-07-26T09:30:13.841Z,22.02
2018-07-26T09:31:13.804Z,22.51
2018-07-26T09:32:13.767Z,22.61
2018-07-26T09:33:13.745Z,23.19
2018-07-26T09:34:13.693Z,23.18
2018-07-26T09:35:13.658Z,22.97
2018-07-26T09:36:13.622Z,23.36
2018-07-26T09:37:13.586Z,23.74
2018-07-26T09:38:13.549Z,24.14
2018-07-26T09:39:13.512Z,24.03
2018-07-26T09:40:13.475Z,24.11
2018-07-26T09:41:13.516Z,25.29
2018-07-26T09:42:13.404Z,25.68
2018-07-26T09:43:13.366Z,25.96
2018-07-26T09:44:13.330Z,26.24
2018-07-26T09:45:13.329Z,26.72
2018-07-26T09:46:13.256Z,27.50
2018-07-26T09:47:13.224Z,27.58
2018-07-26T09:48:13.184Z,28.17
2018-07-26T09:49:13.146Z,28.75
2018-07-26T09:50:13.109Z,28.93
2018-07-26T09:51:13.073Z,29.71
2018-07-26T09:52:13.037Z,29.31
2018-07-26T09:53:13.000Z,29.49
2018-07-26T09:54:12.963Z,30.36
2018-07-26T09:55:12.927Z,30.66
2018-07-26T09:56:12.891Z,30.27
2018-07-26T09:57:12.852Z,30.35
2018-07-26T09:58:12.814Z,31.33
2018-07-26T09:59:12.777Z,31.61
2018-07-26T10:00:12.785Z,31.71
2018-07-26T10:01:12.706Z,32.01
2018-07-26T10:02:12.667Z,31.99
2018-07-26T10:03:12.627Z,32.28
2018-07-26T10:04:12.590Z,32.48
2018-07-26T10:05:12.555Z,32.48
2018-07-26T10:06:12.514Z,32.97
2018-07-26T10:07:12.478Z,33.15
2018-07-26T10:08:12.440Z,33.34
2018-07-26T10:09:12.403Z,33.25
2018-07-26T10:10:12.363Z,33.25
2018-07-26T10:11:12.325Z,33.92
2018-07-26T10:12:12.294Z,33.53
2018-07-26T10:13:12.283Z,33.82
2018-07-26T10:14:12.224Z,34.31
2018-07-26T10:15:12.198Z,34.20
2018-07-26T10:16:12.140Z,34.20
2018-07-26T10:17:12.098Z,34.49
2018-07-26T10:18:12.059Z,34.69
2018-07-26T10:19:12.024Z,34.30
2018-07-26T10:20:12.013Z,34.39
2018-07-26T10:21:11.946Z,34.59
2018-07-26T10:22:11.910Z,34.78
2018-07-26T10:23:11.877Z,34.88
2018-07-26T10:24:11.831Z,34.98
2018-07-26T10:25:11.794Z,34.78
2018-07-26T10:26:11.754Z,34.96
2018-07-26T10:27:11.721Z,34.96
2018-07-26T10:28:11.678Z,35.25
2018-07-26T10:29:11.640Z,34.96
2018-07-26T10:30:11.601Z,35.25
2018-07-26T10:31:11.562Z,35.06
2018-07-26T10:32:11.524Z,35.25
2018-07-26T10:33:11.539Z,35.35
2018-07-26T10:34:11.452Z,35.25
2018-07-26T10:35:11.409Z,35.16
2018-07-26T10:36:11.371Z,35.65
2018-07-26T10:37:11.333Z,35.34
2018-07-26T10:38:11.293Z,35.35
2018-07-26T10:39:11.255Z,35.35
2018-07-26T10:40:11.217Z,35.34
2018-07-26T10:41:11.191Z,35.35
2018-07-26T10:42:11.140Z,35.34
2018-07-26T10:43:11.102Z,35.53
2018-07-26T10:44:11.065Z,35.53
2018-07-26T10:45:11.025Z,35.83
2018-07-26T10:46:10.986Z,35.75
2018-07-26T10:47:10.948Z,35.73
2018-07-26T10:48:10.912Z,35.73
2018-07-26T10:49:10.871Z,35.73
2018-07-26T10:50:10.832Z,35.63
2018-07-26T10:51:10.794Z,35.53
2018-07-26T10:52:10.755Z,35.53
2018-07-26T10:53:10.719Z,35.53
2018-07-26T10:54:10.678Z,35.44
2018-07-26T10:55:10.642Z,35.63
2018-07-26T10:56:10.601Z,35.44
2018-07-26T10:57:10.563Z,35.34
2018-07-26T10:58:10.525Z,35.44
2018-07-26T10:59:10.485Z,35.73
2018-07-26T11:00:10.500Z,36.02
2018-07-26T11:01:10.409Z,36.02
2018-07-26T11:02:10.420Z,36.12
2018-07-26T11:03:10.333Z,36.02
2018-07-26T11:04:10.292Z,36.22
2018-07-26T11:05:10.256Z,36.22
2018-07-26T11:06:10.215Z,36.02
2018-07-26T11:07:10.176Z,36.22
2018-07-26T11:08:10.140Z,36.10
2018-07-26T11:09:10.100Z,36.32
2018-07-26T11:10:10.061Z,36.30
2018-07-26T11:11:10.022Z,36.41
2018-07-26T11:12:09.984Z,36.30
2018-07-26T11:13:09.946Z,36.49
2018-07-26T11:14:09.906Z,36.30
2018-07-26T11:15:09.870Z,36.40
2018-07-26T11:16:09.829Z,36.40
2018-07-26T11:17:09.791Z,36.49
2018-07-26T11:18:09.751Z,36.49
2018-07-26T11:19:09.713Z,36.41
2018-07-26T11:20:09.674Z,36.40
2018-07-26T11:21:09.636Z,36.69
2018-07-26T11:22:09.597Z,36.69
2018-07-26T11:23:09.558Z,36.59
2018-07-26T11:24:09.585Z,36.88
2018-07-26T11:25:09.481Z,36.69
2018-07-26T11:26:09.442Z,36.59
2018-07-26T11:27:09.478Z,36.49
2018-07-26T11:28:09.364Z,36.69
2018-07-26T11:29:09.326Z,36.79
2018-07-26T11:30:09.287Z,36.59
2018-07-26T11:31:09.253Z,36.69
2018-07-26T11:32:09.210Z,36.69
2018-07-26T11:33:09.171Z,36.69
2018-07-26T11:34:09.132Z,36.88
2018-07-26T11:35:09.093Z,36.69
2018-07-26T11:36:09.054Z,36.98
2018-07-26T11:37:09.020Z,36.79
2018-07-26T11:38:08.976Z,36.88
2018-07-26T11:39:08.940Z,37.08
2018-07-26T11:40:08.899Z,37.08
2018-07-26T11:41:08.911Z,37.18
2018-07-26T11:42:08.823Z,36.98
2018-07-26T11:43:08.782Z,37.08
2018-07-26T11:44:08.749Z,36.98
2018-07-26T11:45:08.705Z,37.08
2018-07-26T11:46:08.666Z,37.08
2018-07-26T11:47:08.627Z,37.18
2018-07-26T11:48:08.589Z,37.08
2018-07-26T11:49:08.550Z,37.08
2018-07-26T11:50:08.577Z,36.98
2018-07-26T11:51:08.472Z,37.18
2018-07-26T11:52:08.433Z,36.96
2018-07-26T11:53:08.395Z,37.06
2018-07-26T11:54:08.355Z,37.06
2018-07-26T11:55:08.316Z,36.96
2018-07-26T11:56:08.279Z,36.96
2018-07-26T11:57:08.239Z,36.96
2018-07-26T11:58:08.200Z,37.08
2018-07-26T11:59:08.161Z,36.87
2018-07-26T12:00:08.125Z,36.67
2018-07-26T12:01:08.084Z,36.67
2018-07-26T12:02:08.044Z,36.57
2018-07-26T12:03:08.013Z,36.67
2018-07-26T12:04:07.967Z,36.87
2018-07-26T12:05:07.929Z,36.77
2018-07-26T12:06:07.890Z,37.06
2018-07-26T12:07:07.850Z,37.06
2018-07-26T12:08:07.878Z,36.96
2018-07-26T12:09:07.772Z,36.96
2018-07-26T12:10:07.733Z,36.96
2018-07-26T12:11:07.694Z,36.96
2018-07-26T12:12:07.655Z,36.77
2018-07-26T12:13:07.616Z,36.77
2018-07-26T12:14:07.577Z,36.77
2018-07-26T12:15:07.541Z,36.77
2018-07-26T12:16:07.500Z,36.77
2018-07-26T12:17:07.461Z,36.87
2018-07-26T12:18:07.472Z,36.96
2018-07-26T12:19:07.383Z,36.96
2018-07-26T12:20:07.344Z,37.16
2018-07-26T12:21:07.305Z,37.06
2018-07-26T12:22:07.266Z,37.16
2018-07-26T12:23:07.318Z,36.96
2018-07-26T12:24:07.189Z,37.06
2018-07-26T12:25:07.149Z,37.06
2018-07-26T12:26:07.113Z,36.96
2018-07-26T12:27:07.122Z,37.16
2018-07-26T12:28:07.032Z,37.26
2018-07-26T12:29:06.993Z,37.16
2018-07-26T12:30:06.953Z,37.16
2018-07-26T12:31:06.915Z,37.16
2018-07-26T12:32:06.876Z,37.16
2018-07-26T12:33:06.837Z,37.65
2018-07-26T12:34:06.797Z,36.96
2018-07-26T12:35:06.758Z,37.35
2018-07-26T12:36:06.722Z,37.65
2018-07-26T12:37:06.681Z,37.06
2018-07-26T12:38:06.642Z,37.06
2018-07-26T12:39:06.603Z,37.06
2018-07-26T12:40:06.564Z,37.16
2018-07-26T12:41:06.568Z,37.16
2018-07-26T12:42:06.485Z,37.45
2018-07-26T12:43:06.446Z,37.16
2018-07-26T12:44:06.407Z,37.35
2018-07-26T12:45:06.371Z,37.16
2018-07-26T12:46:06.329Z,37.24
2018-07-26T12:47:06.290Z,37.26
2018-07-26T12:48:06.252Z,37.26
2018-07-26T12:49:06.215Z,37.16
2018-07-26T12:50:06.173Z,37.26
2018-07-26T12:51:06.134Z,37.35
2018-07-26T12:52:06.095Z,37.26